Dunnsville, VA

9:44 AM EST on February 06, 2016 (GMT -0500)
Tappahannock

Weather History for KXSA - February, 2013

Change the Weather History Date:

Wednesday, February 20, 2013

  Actual Average (KRIC) Record (KRIC)
Temperature  
Mean Temperature 37 °F 42 °F  
Max Temperature 46 °F 53 °F 77 °F (1930)
Min Temperature 28 °F 31 °F 3 °F (1979)
Degree Days  
Heating Degree Days 28 23  
Month to date heating degree days 498  
Since 1 July heating degree days 2759  
Cooling Degree Days 0 0  
Month to date cooling degree days 0  
Year to date cooling degree days 0  
Moisture  
Dew Point 18 °F    
Average Humidity 47    
Maximum Humidity 88    
Minimum Humidity 28    
Precipitation  
Precipitation 0.00 in 0.10 in 1.32 in (1921)
Month to date precipitation 1.94  
Year to date precipitation 4.98  
Snow  
Snow 0.00 in 0.10 in 5.60 in (1947)
Month to date snowfall 2.6  
Since 1 July snowfall 8.8  
Snow Depth -    
Sea Level Pressure  
Sea Level Pressure 30.00 in    
Wind  
Wind Speed 5 mph (West)    
Max Wind Speed 13 mph    
Max Gust Speed 18 mph    
Visibility 10 miles    
Events      
T = Trace of Precipitation, MM = Missing Value Source: NWS Daily Summary

Daily Weather History Graph

Daily Weather History Graph

Search for Another Location

Airport or City:

Trip Planner

Search our weather history database for the weather conditions in past years. The results will help you decide how hot, cold, wet, or windy it might be!

Date:

Astronomy

Feb. 20, 2013 Rise Set
Actual Time 6:50 AM EST 5:52 PM EST
Civil Twilight 6:24 AM EST 6:18 PM EST
Nautical Twilight 5:53 AM EST 6:49 PM EST
Astronomical Twilight 5:23 AM EST 7:19 PM EST
Moon 1:14 PM EST (2/20) 3:06 AM EST (2/20)
Length of Visible Light 11h 54m
Length of Day
11h 01m
Waxing Gibbous, 76% of the Moon is Illuminated
Feb 20
Waxing Gibbous
Feb 25
Full
Mar 4
Last Quarter
Mar 11
New
Mar 19
First Quarter

Hourly Weather History & Observations

Time (EST) Temp. Windchill Dew Point Humidity Pressure Visibility Wind Dir Wind Speed Gust Speed Precip Events Conditions
12:15 AM 39.2 °F 35.0 °F 36.0 °F 88% 29.86 in 10.0 mi WSW 5.8 mph - N/A   Clear
12:35 AM 39.2 °F 35.9 °F 32.9 °F 78% 29.86 in 10.0 mi WSW 4.6 mph - N/A   Clear
12:55 AM 38.7 °F 36.3 °F 30.9 °F 74% 29.87 in 10.0 mi West 3.5 mph - N/A   Clear
1:15 AM 37.6 °F 34.0 °F 29.5 °F 73% 29.88 in 10.0 mi SW 4.6 mph - N/A   Clear
1:35 AM 37.8 °F 32.5 °F 26.8 °F 65% 29.88 in 10.0 mi West 6.9 mph - N/A   Clear
1:55 AM 37.2 °F 34.7 °F 25.3 °F 62% 29.89 in 10.0 mi West 3.5 mph - N/A   Clear
2:15 AM 34.3 °F 30.2 °F 25.5 °F 70% 29.89 in 10.0 mi SW 4.6 mph - N/A   Clear
2:35 AM 34.9 °F 29.9 °F 23.7 °F 64% 29.90 in 10.0 mi WSW 5.8 mph - N/A   Clear
2:55 AM 35.6 °F 32.8 °F 22.6 °F 59% 29.89 in 10.0 mi West 3.5 mph - N/A   Clear
3:15 AM 34.7 °F 30.6 °F 21.6 °F 59% 29.89 in 10.0 mi SW 4.6 mph - N/A   Clear
3:35 AM 35.2 °F 32.4 °F 20.1 °F 54% 29.90 in 10.0 mi West 3.5 mph - N/A   Clear
3:55 AM 33.8 °F 29.6 °F 20.3 °F 58% 29.90 in 10.0 mi SW 4.6 mph - N/A   Clear
4:15 AM 32.5 °F - 20.5 °F 61% 29.91 in 10.0 mi Calm Calm - N/A   Clear
4:35 AM 32.9 °F 29.8 °F 19.2 °F 57% 29.91 in 10.0 mi WSW 3.5 mph - N/A   Clear
4:55 AM 33.3 °F 27.9 °F 18.0 °F 53% 29.92 in 10.0 mi WSW 5.8 mph - N/A   Clear
5:15 AM 33.4 °F - 17.4 °F 52% 29.93 in 10.0 mi Calm Calm - N/A   Clear
5:35 AM 32.4 °F 26.9 °F 18.1 °F 56% 29.94 in 10.0 mi WSW 5.8 mph - N/A   Clear
5:55 AM 33.8 °F 29.6 °F 16.7 °F 50% 29.95 in 10.0 mi WSW 4.6 mph - N/A   Clear
6:15 AM 33.3 °F 28.9 °F 16.5 °F 50% 29.95 in 10.0 mi WSW 4.6 mph - N/A   Clear
6:35 AM 32.9 °F 28.5 °F 16.3 °F 51% 29.96 in 10.0 mi WSW 4.6 mph - N/A   Clear
6:55 AM 32.0 °F 27.5 °F 16.7 °F 53% 29.98 in 10.0 mi WSW 4.6 mph - N/A   Clear
7:15 AM 32.0 °F 26.4 °F 17.4 °F 55% 29.99 in 10.0 mi WSW 5.8 mph - N/A   Clear
7:35 AM 33.1 °F 30.0 °F 18.1 °F 54% 30.00 in 10.0 mi West 3.5 mph - N/A   Clear
7:55 AM 34.2 °F 31.2 °F 19.2 °F 54% 30.00 in 10.0 mi WSW 3.5 mph - N/A   Clear
8:15 AM 35.6 °F 31.7 °F 19.0 °F 51% 30.01 in 10.0 mi West 4.6 mph - N/A   Clear
8:35 AM 36.5 °F 32.7 °F 19.4 °F 50% 30.02 in 10.0 mi West 4.6 mph - N/A   Clear
8:55 AM 37.4 °F 34.9 °F 18.7 °F 47% 30.02 in 10.0 mi WNW 3.5 mph - N/A   Clear
9:15 AM 37.9 °F 32.7 °F 18.0 °F 45% 30.02 in 10.0 mi NW 6.9 mph - N/A   Clear
9:35 AM 38.7 °F 34.3 °F 17.8 °F 43% 30.02 in 10.0 mi WNW 5.8 mph - N/A   Clear
10:15 AM 38.5 °F 35.0 °F 16.7 °F 41% 30.02 in 10.0 mi WNW 4.6 mph - N/A   Clear
10:35 AM 40.6 °F 35.4 °F 17.4 °F 39% 30.03 in 10.0 mi WNW 8.1 mph - N/A   Scattered Clouds
10:55 AM 41.0 °F 36.4 °F 17.2 °F 38% 30.03 in 10.0 mi NW 6.9 mph - N/A   Scattered Clouds
11:15 AM 41.9 °F 39.0 °F 17.4 °F 37% 30.02 in 10.0 mi West 4.6 mph - N/A   Scattered Clouds
11:35 AM 43.5 °F 37.5 °F 18.5 °F 37% 30.02 in 10.0 mi West 11.5 mph - N/A   Mostly Cloudy
11:55 AM 43.0 °F 39.5 °F 16.9 °F 35% 30.01 in 10.0 mi West 5.8 mph - N/A   Mostly Cloudy
12:15 PM 43.0 °F 39.5 °F 16.5 °F 34% 30.00 in 10.0 mi WNW 5.8 mph - N/A   Scattered Clouds
12:35 PM 43.0 °F 41.3 °F 16.3 °F 34% 29.99 in 10.0 mi WNW 3.5 mph - N/A   Scattered Clouds
12:55 PM 42.6 °F - 16.2 °F 34% 29.99 in 10.0 mi Calm Calm - N/A   Mostly Cloudy
1:15 PM 41.4 °F 36.8 °F 15.6 °F 35% 29.98 in 10.0 mi WSW 6.9 mph - N/A   Mostly Cloudy
1:35 PM 44.4 °F 38.2 °F 16.3 °F 32% 29.98 in 10.0 mi SW 12.7 mph 18.4 mph N/A   Scattered Clouds
1:55 PM 44.1 °F 38.6 °F 15.6 °F 32% 29.98 in 10.0 mi WSW 10.4 mph 16.1 mph N/A   Mostly Cloudy
2:15 PM 44.8 °F 39.9 °F 16.2 °F 32% 29.98 in 10.0 mi West 9.2 mph - N/A   Scattered Clouds
2:35 PM 45.3 °F 39.7 °F 15.6 °F 30% 29.97 in 10.0 mi WSW 11.5 mph 18.4 mph N/A   Scattered Clouds
2:55 PM 45.1 °F 39.1 °F 14.9 °F 30% 29.97 in 10.0 mi WSW 12.7 mph 18.4 mph N/A   Scattered Clouds
3:15 PM 45.7 °F 40.6 °F 15.8 °F 30% 29.97 in 10.0 mi WSW 10.4 mph 16.1 mph N/A   Clear
3:55 PM 45.9 °F 41.2 °F 14.7 °F 29% 29.98 in 10.0 mi West 9.2 mph - N/A   Clear
4:15 PM 45.1 °F 39.9 °F 13.8 °F 28% 29.98 in 10.0 mi WSW 10.4 mph 18.4 mph N/A   Clear
4:35 PM 45.1 °F 39.5 °F 13.8 °F 28% 29.98 in 10.0 mi West 11.5 mph 17.3 mph N/A   Clear
4:55 PM 44.8 °F 41.0 °F 13.5 °F 28% 29.99 in 10.0 mi West 6.9 mph - N/A   Clear
5:15 PM 44.6 °F 42.2 °F 14.0 °F 29% 30.00 in 10.0 mi West 4.6 mph - N/A   Clear
5:35 PM 43.7 °F 40.3 °F 13.6 °F 30% 30.02 in 10.0 mi WNW 5.8 mph - N/A   Clear
5:55 PM 42.3 °F 40.5 °F 13.8 °F 32% 30.02 in 10.0 mi West 3.5 mph - N/A   Clear
6:15 PM 40.3 °F 34.9 °F 15.3 °F 36% 30.04 in 10.0 mi North 8.1 mph 16.1 mph N/A   Clear
6:35 PM 38.5 °F 32.7 °F 16.2 °F 40% 30.05 in 10.0 mi North 8.1 mph - N/A   Clear
6:55 PM 37.2 °F 34.7 °F 16.2 °F 42% 30.08 in 10.0 mi North 3.5 mph - N/A   Clear
7:15 PM 37.2 °F 30.6 °F 15.8 °F 42% 30.08 in 10.0 mi NNW 9.2 mph - N/A   Clear
7:35 PM 35.6 °F 28.6 °F 15.6 °F 44% 30.10 in 10.0 mi NNW 9.2 mph - N/A   Clear
7:55 PM 34.7 °F 26.9 °F 14.4 °F 43% 30.10 in 10.0 mi NNW 10.4 mph 16.1 mph N/A   Clear
8:15 PM 34.0 °F 28.8 °F 14.0 °F 44% 30.11 in 10.0 mi NNW 5.8 mph - N/A   Clear
8:35 PM 33.1 °F 27.7 °F 14.4 °F 46% 30.11 in 10.0 mi NW 5.8 mph - N/A   Clear
8:55 PM 32.4 °F 27.9 °F 14.2 °F 47% 30.12 in 10.0 mi North 4.6 mph - N/A   Clear
9:15 PM 32.2 °F 26.7 °F 13.8 °F 47% 30.14 in 10.0 mi NNW 5.8 mph - N/A   Clear
9:35 PM 31.8 °F 23.9 °F 13.8 °F 47% 30.14 in 10.0 mi NNW 9.2 mph - N/A   Clear
10:15 PM 30.7 °F 24.9 °F 13.8 °F 50% 30.15 in 10.0 mi NNW 5.8 mph - N/A   Clear
10:35 PM 30.2 °F 25.4 °F 13.8 °F 51% 30.14 in 10.0 mi NW 4.6 mph - N/A   Clear
10:55 PM 30.0 °F 25.2 °F 13.5 °F 50% 30.16 in 10.0 mi NW 4.6 mph - N/A   Clear
11:15 PM 29.8 °F 26.3 °F 13.1 °F 50% 30.16 in 10.0 mi NNW 3.5 mph - N/A   Clear
11:35 PM 29.7 °F 22.8 °F 12.9 °F 50% 30.15 in 10.0 mi NNW 6.9 mph - N/A   Clear
11:55 PM 28.9 °F 25.2 °F 12.9 °F 51% 30.14 in 10.0 mi NW 3.5 mph - N/A   Clear